Lady Debora — V2QG7 — position and weather

sailwx.info

Track history (hours):
 
Tides and Currents Weather Stations Pressure Air Temp Water Temp Dewpoint Dewpoint Depression Visibility Wind Speed Wind Dir Waves Ship Positions

Lady Debora

Last reported at 2017-Nov-18 18:05 UTC. Time now 2017-Nov-20 09:59 UTC.
Position N 43°25' E 004°56'.

Length 107 m; draft 3.9 m.

Type: Cargo ship. MMSI: 304010760.

Date/timePositionNaut miles runAvg speedWind from/ knotsBaromVisibWave heightAir tempDewpointWater temp
2017-Nov-18 18:05N 43°25' E 004°56'0 3.9
2017-Nov-18 17:59N 43°25' E 004°56'4 8.8
2017-Nov-18 17:30N 43°21' E 004°59'  
2017-Nov-14 04:14N 37°43' W 000°22'3 8.2
2017-Nov-14 03:51N 37°40' W 000°25'3 8.5
2017-Nov-14 03:30N 37°38' W 000°27'4 8.4
2017-Nov-14 03:00N 37°34' W 000°30'4 8.3
2017-Nov-14 02:30N 37°31' W 000°33'6 8.5
2017-Nov-14 01:49N 37°27' W 000°39'5 8.2
2017-Nov-14 01:13N 37°24' W 000°43'2 8.3
2017-Nov-14 01:00N 37°23' W 000°45'4 8.3
2017-Nov-14 00:29N 37°20' W 000°49'4 8.4
2017-Nov-14 00:00N 37°17' W 000°53'222 9.7
2017-Nov-13 01:09N 35°59' W 005°12'212.5
2017-Nov-13 01:00N 35°59' W 005°14'612.0
2017-Nov-13 00:31N 35°58' W 005°22'611.6
2017-Nov-13 00:01N 35°57' W 005°29'216 9.4
2017-Nov-12 01:03N 37°14' W 009°40'110.1
2017-Nov-12 01:00N 37°15' W 009°40'1710.1
2017-Nov-11 23:21N 37°31' W 009°45'410.5
2017-Nov-11 23:00N 37°34' W 009°46'910.2
2017-Nov-11 22:09N 37°43' W 009°49'2 9.8
2017-Nov-11 21:58N 37°45' W 009°49'510.0
2017-Nov-11 21:31N 37°49' W 009°51'510.1
2017-Nov-11 21:01N 37°54' W 009°52'510.3
2017-Nov-11 20:30N 37°59' W 009°54'510.1
2017-Nov-11 20:01N 38°04' W 009°55'5 9.9
2017-Nov-11 19:30N 38°09' W 009°56'1110.3
2017-Nov-11 18:26N 38°20' W 009°60'7 9.9
2017-Nov-11 17:41N 38°27' W 010°02'410.0
2017-Nov-11 17:14N 38°31' W 010°03'210.0
2017-Nov-11 17:00N 38°34' W 010°04'5 9.7
2017-Nov-11 16:30N 38°38' W 010°05'5 9.6
2017-Nov-11 15:59N 38°43' W 010°06'5 9.8
2017-Nov-11 15:30N 38°48' W 010°06'5 9.8
2017-Nov-11 15:01N 38°53' W 010°06'5 9.5
2017-Nov-11 14:31N 38°57' W 010°06'5 9.6
2017-Nov-11 14:01N 39°02' W 010°06'5 9.9
2017-Nov-11 13:30N 39°07' W 010°06'510.2
2017-Nov-11 13:00N 39°12' W 010°06'5 9.8
2017-Nov-11 12:30N 39°17' W 010°05'292 8.0
2017-Nov-10 00:14N 43°54' W 008°03'13 8.4
2017-Nov-09 22:39N 43°54' W 007°45'1 8.3
2017-Nov-09 22:30N 43°54' W 007°43'4 7.0
2017-Nov-09 22:00N 43°52' W 007°39'4 7.9
2017-Nov-09 21:30N 43°49' W 007°36'4 8.5
2017-Nov-09 21:00N 43°45' W 007°36'4 7.2
2017-Nov-09 20:31N 43°41' W 007°36'0 0.6
2017-Nov-09 19:59N 43°41' W 007°36'0 0.0
2017-Nov-09 19:29N 43°41' W 007°36'0 0.0
2017-Nov-09 18:59N 43°41' W 007°36'0 0.0
2017-Nov-09 18:29N 43°41' W 007°36'0 0.0
2017-Nov-09 17:59N 43°41' W 007°36'0 0.0
2017-Nov-09 17:23N 43°41' W 007°36'0 0.0
2017-Nov-09 16:59N 43°41' W 007°36'0 0.0
2017-Nov-09 16:29N 43°41' W 007°36'0 0.0
2017-Nov-09 15:47N 43°41' W 007°36'0 0.0
2017-Nov-09 15:23N 43°41' W 007°36'0 0.0
2017-Nov-09 14:50N 43°41' W 007°36'0 0.0
2017-Nov-09 14:20N 43°41' W 007°36'0 0.0
2017-Nov-09 13:53N 43°41' W 007°36'0 0.0
2017-Nov-09 13:17N 43°41' W 007°36'0 0.0
2017-Nov-09 12:59N 43°41' W 007°36'0 0.0
2017-Nov-09 12:29N 43°41' W 007°36'0 0.0
2017-Nov-09 11:56N 43°41' W 007°36'0 0.0
2017-Nov-09 11:26N 43°41' W 007°36'0 0.0
2017-Nov-09 10:53N 43°41' W 007°36'0 0.0
2017-Nov-09 10:26N 43°41' W 007°36'0 0.0
2017-Nov-09 09:56N 43°41' W 007°36'0 0.0
2017-Nov-09 09:14N 43°41' W 007°36'0 0.0
2017-Nov-09 08:59N 43°41' W 007°36'0 0.0
2017-Nov-09 08:29N 43°41' W 007°36'0 0.0
2017-Nov-09 07:59N 43°41' W 007°36'0 0.0
2017-Nov-09 07:27N 43°41' W 007°36'0 0.8
2017-Nov-09 07:00N 43°41' W 007°36'2 4.5
2017-Nov-09 06:30N 43°43' W 007°36'4 7.6
2017-Nov-09 06:00N 43°47' W 007°36'5 9.5
2017-Nov-09 05:30N 43°52' W 007°37'4 8.5
2017-Nov-09 05:00N 43°54' W 007°42'5 9.4
2017-Nov-09 04:30N 43°54' W 007°49'7 9.6
2017-Nov-09 03:49N 43°54' W 007°58'3 9.9
2017-Nov-09 03:29N 43°54' W 008°02'  
Track history (hours):
 
Tides and Currents Weather Stations Pressure Air Temp Water Temp Dewpoint Dewpoint Depression Visibility Wind Speed Wind Dir Waves Ship Positions

Lady Debora

Last reported at 2017-Nov-18 18:05 UTC. Time now 2017-Nov-20 09:59 UTC.
Position N 43°25' E 004°56'.

Length 107 m; draft 3.9 m.

Type: Cargo ship. MMSI: 304010760.

Date/timePositionNaut miles runAvg speedWind from/ knotsBaromVisibWave heightAir tempDewpointWater temp
2017-Nov-18 18:05N 43°25' E 004°56'0 3.9
2017-Nov-18 17:59N 43°25' E 004°56'4 8.8
2017-Nov-18 17:30N 43°21' E 004°59'  
2017-Nov-14 04:14N 37°43' W 000°22'3 8.2
2017-Nov-14 03:51N 37°40' W 000°25'3 8.5
2017-Nov-14 03:30N 37°38' W 000°27'4 8.4
2017-Nov-14 03:00N 37°34' W 000°30'4 8.3
2017-Nov-14 02:30N 37°31' W 000°33'6 8.5
2017-Nov-14 01:49N 37°27' W 000°39'5 8.2
2017-Nov-14 01:13N 37°24' W 000°43'2 8.3
2017-Nov-14 01:00N 37°23' W 000°45'4 8.3
2017-Nov-14 00:29N 37°20' W 000°49'4 8.4
2017-Nov-14 00:00N 37°17' W 000°53'222 9.7
2017-Nov-13 01:09N 35°59' W 005°12'212.5
2017-Nov-13 01:00N 35°59' W 005°14'612.0
2017-Nov-13 00:31N 35°58' W 005°22'611.6
2017-Nov-13 00:01N 35°57' W 005°29'216 9.4
2017-Nov-12 01:03N 37°14' W 009°40'110.1
2017-Nov-12 01:00N 37°15' W 009°40'1710.1
2017-Nov-11 23:21N 37°31' W 009°45'410.5
2017-Nov-11 23:00N 37°34' W 009°46'910.2
2017-Nov-11 22:09N 37°43' W 009°49'2 9.8
2017-Nov-11 21:58N 37°45' W 009°49'510.0
2017-Nov-11 21:31N 37°49' W 009°51'510.1
2017-Nov-11 21:01N 37°54' W 009°52'510.3
2017-Nov-11 20:30N 37°59' W 009°54'510.1
2017-Nov-11 20:01N 38°04' W 009°55'5 9.9
2017-Nov-11 19:30N 38°09' W 009°56'1110.3
2017-Nov-11 18:26N 38°20' W 009°60'7 9.9
2017-Nov-11 17:41N 38°27' W 010°02'410.0
2017-Nov-11 17:14N 38°31' W 010°03'210.0
2017-Nov-11 17:00N 38°34' W 010°04'5 9.7
2017-Nov-11 16:30N 38°38' W 010°05'5 9.6
2017-Nov-11 15:59N 38°43' W 010°06'5 9.8
2017-Nov-11 15:30N 38°48' W 010°06'5 9.8
2017-Nov-11 15:01N 38°53' W 010°06'5 9.5
2017-Nov-11 14:31N 38°57' W 010°06'5 9.6
2017-Nov-11 14:01N 39°02' W 010°06'5 9.9
2017-Nov-11 13:30N 39°07' W 010°06'510.2
2017-Nov-11 13:00N 39°12' W 010°06'5 9.8
2017-Nov-11 12:30N 39°17' W 010°05'292 8.0
2017-Nov-10 00:14N 43°54' W 008°03'13 8.4
2017-Nov-09 22:39N 43°54' W 007°45'1 8.3
2017-Nov-09 22:30N 43°54' W 007°43'4 7.0
2017-Nov-09 22:00N 43°52' W 007°39'4 7.9
2017-Nov-09 21:30N 43°49' W 007°36'4 8.5
2017-Nov-09 21:00N 43°45' W 007°36'4 7.2
2017-Nov-09 20:31N 43°41' W 007°36'0 0.6
2017-Nov-09 19:59N 43°41' W 007°36'0 0.0
2017-Nov-09 19:29N 43°41' W 007°36'0 0.0
2017-Nov-09 18:59N 43°41' W 007°36'0 0.0
2017-Nov-09 18:29N 43°41' W 007°36'0 0.0
2017-Nov-09 17:59N 43°41' W 007°36'0 0.0
2017-Nov-09 17:23N 43°41' W 007°36'0 0.0
2017-Nov-09 16:59N 43°41' W 007°36'0 0.0
2017-Nov-09 16:29N 43°41' W 007°36'0 0.0
2017-Nov-09 15:47N 43°41' W 007°36'0 0.0
2017-Nov-09 15:23N 43°41' W 007°36'0 0.0
2017-Nov-09 14:50N 43°41' W 007°36'0 0.0
2017-Nov-09 14:20N 43°41' W 007°36'0 0.0
2017-Nov-09 13:53N 43°41' W 007°36'0 0.0
2017-Nov-09 13:17N 43°41' W 007°36'0 0.0
2017-Nov-09 12:59N 43°41' W 007°36'0 0.0
2017-Nov-09 12:29N 43°41' W 007°36'0 0.0
2017-Nov-09 11:56N 43°41' W 007°36'0 0.0
2017-Nov-09 11:26N 43°41' W 007°36'0 0.0
2017-Nov-09 10:53N 43°41' W 007°36'0 0.0
2017-Nov-09 10:26N 43°41' W 007°36'0 0.0
2017-Nov-09 09:56N 43°41' W 007°36'0 0.0
2017-Nov-09 09:14N 43°41' W 007°36'0 0.0
2017-Nov-09 08:59N 43°41' W 007°36'0 0.0
2017-Nov-09 08:29N 43°41' W 007°36'0 0.0
2017-Nov-09 07:59N 43°41' W 007°36'0 0.0
2017-Nov-09 07:27N 43°41' W 007°36'0 0.8
2017-Nov-09 07:00N 43°41' W 007°36'2 4.5
2017-Nov-09 06:30N 43°43' W 007°36'4 7.6
2017-Nov-09 06:00N 43°47' W 007°36'5 9.5
2017-Nov-09 05:30N 43°52' W 007°37'4 8.5
2017-Nov-09 05:00N 43°54' W 007°42'5 9.4
2017-Nov-09 04:30N 43°54' W 007°49'7 9.6
2017-Nov-09 03:49N 43°54' W 007°58'3 9.9
2017-Nov-09 03:29N 43°54' W 008°02'  

Dump ship's entire track history